Time;durP1;ratioP1;P1;durP2;ratioP2;P2;SDS_P1;SDS_P2;PMS_P1;PMS_P2;Temp;Humidity;BMP_temperature;BMP_pressure;BME280_temperature;BME280_humidity;BME280_pressure;Samples;Min_cycle;Max_cycle;Signal;HPM_P1;HPM_P2
2023/04/12 00:02:29;;;;;;;7.93;2.00;;;;;;;6.60;100.00;95722.91;6181542;23;20013;-88
2023/04/12 00:04:56;;;;;;;5.67;1.63;;;;;;;6.48;100.00;95717.09;6155581;23;20013;-88
2023/04/12 00:07:23;;;;;;;5.87;1.60;;;;;;;6.56;100.00;95718.97;6156326;23;20418;-88
2023/04/12 00:09:49;;;;;;;6.13;1.87;;;;;;;6.52;100.00;95713.22;6156791;23;20063;-87
2023/04/12 00:12:18;;;;;;;6.50;1.60;;;;;;;6.57;100.00;95712.75;6181319;23;20017;-88
2023/04/12 00:14:47;;;;;;;5.10;1.77;;;;;;;6.55;100.00;95705.09;6181605;23;20012;-88
2023/04/12 00:17:12;;;;;;;6.57;1.73;;;;;;;6.57;100.00;95702.31;6157036;23;20009;-88
2023/04/12 00:19:40;;;;;;;10.33;2.43;;;;;;;6.56;100.00;95700.69;6181287;23;20183;-88
2023/04/12 00:22:10;;;;;;;5.87;1.80;;;;;;;6.54;100.00;95703.44;6181270;23;20016;-89
2023/04/12 00:24:40;;;;;;;8.23;1.70;;;;;;;6.59;100.00;95701.19;6156824;23;20008;-88
2023/04/12 00:27:16;;;;;;;6.80;1.67;;;;;;;6.63;100.00;95696.50;6182102;23;20017;-88
2023/04/12 00:29:41;;;;;;;6.13;1.90;;;;;;;6.64;100.00;95687.72;6183893;23;20013;-88
2023/04/12 00:32:08;;;;;;;7.70;1.83;;;;;;;6.71;100.00;95682.72;6157260;23;20017;-88
2023/04/12 00:34:33;;;;;;;6.20;2.20;;;;;;;6.76;100.00;95681.28;6156442;23;20147;-88
2023/04/12 00:37:01;;;;;;;5.23;1.93;;;;;;;6.83;100.00;95677.09;6157198;23;20009;-88
2023/04/12 00:39:26;;;;;;;4.77;1.70;;;;;;;6.84;100.00;95678.75;6181723;23;20021;-88
2023/04/12 00:41:52;;;;;;;5.57;1.67;;;;;;;6.91;100.00;95667.69;6155681;23;20019;-88
2023/04/12 00:44:18;;;;;;;5.53;1.73;;;;;;;6.92;100.00;95669.34;6181433;23;20047;-87
2023/04/12 00:46:46;;;;;;;5.70;1.70;;;;;;;7.00;100.00;95678.06;6157200;23;20009;-88
2023/04/12 00:49:12;;;;;;;6.67;1.93;;;;;;;6.96;100.00;95670.69;6157266;23;20009;-88
2023/04/12 00:51:39;;;;;;;9.43;1.90;;;;;;;7.04;100.00;95666.34;6157011;23;20024;-88
2023/04/12 00:54:05;;;;;;;8.93;2.37;;;;;;;7.20;100.00;95667.44;6159451;23;20012;-88
2023/04/12 00:56:37;;;;;;;6.87;2.23;;;;;;;7.15;100.00;95657.44;6157399;23;20009;-88
2023/04/12 00:59:02;;;;;;;8.67;2.70;;;;;;;7.23;100.00;95657.47;6174954;23;20112;-88
2023/04/12 01:01:32;;;;;;;10.43;3.10;;;;;;;7.11;100.00;95666.56;6155516;23;20013;-88
2023/04/12 01:03:59;;;;;;;7.20;1.97;;;;;;;7.17;100.00;95667.72;6180992;23;20013;-88
2023/04/12 01:06:50;;;;;;;7.17;1.77;;;;;;;7.20;100.00;95662.19;6156182;23;20005;-86
2023/04/12 01:09:27;;;;;;;10.47;1.70;;;;;;;7.24;100.00;95660.91;6181794;23;20445;-88
2023/04/12 01:11:52;;;;;;;4.83;1.40;;;;;;;7.16;100.00;95661.69;6157716;23;20021;-88
2023/04/12 01:14:42;;;;;;;6.20;1.90;;;;;;;7.18;100.00;95664.16;6157130;23;20020;-88
2023/04/12 01:17:13;;;;;;;7.10;2.00;;;;;;;7.21;100.00;95659.44;6181324;23;20016;-88
2023/04/12 01:20:12;;;;;;;7.13;1.83;;;;;;;7.13;100.00;95666.41;6156884;23;20433;-87
2023/04/12 01:23:13;;;;;;;4.27;1.50;;;;;;;7.10;100.00;95664.91;6156725;23;20043;-86
2023/04/12 01:25:57;;;;;;;6.70;2.00;;;;;;;7.02;100.00;95664.84;6158645;23;20017;-88
2023/04/12 01:28:27;;;;;;;;;;;;;;;7.00;100.00;95662.38;6165735;23;20520;-88
2023/04/12 01:30:53;;;;;;;6.63;1.60;;;;;;;6.96;100.00;95666.25;6171771;23;19978;-88
2023/04/12 01:33:22;;;;;;;5.67;1.63;;;;;;;6.94;100.00;95667.38;6167790;23;20253;-85
2023/04/12 01:35:50;;;;;;;8.90;1.80;;;;;;;6.98;100.00;95651.25;6185774;23;20009;-88
2023/04/12 01:38:16;;;;;;;6.17;1.90;;;;;;;6.92;100.00;95651.03;6183373;23;20019;-87
2023/04/12 01:40:43;;;;;;;6.70;2.00;;;;;;;6.92;100.00;95654.47;6157860;23;20388;-87
2023/04/12 01:43:10;;;;;;;7.80;2.03;;;;;;;6.84;100.00;95657.84;6183551;23;20063;-87
2023/04/12 01:45:49;;;;;;;7.53;1.83;;;;;;;6.96;100.00;95653.19;6183173;23;20176;-89
2023/04/12 01:48:16;;;;;;;5.07;1.30;;;;;;;6.90;100.00;95658.19;6159301;23;20131;-89
2023/04/12 01:50:41;;;;;;;4.00;1.57;;;;;;;6.92;100.00;95648.44;6184479;23;20107;-87
2023/04/12 01:53:31;;;;;;;4.53;1.60;;;;;;;6.85;100.00;95646.41;6158832;23;20045;-89
2023/04/12 01:56:05;;;;;;;7.87;2.33;;;;;;;6.88;100.00;95653.13;6183495;23;20009;-88
2023/04/12 01:58:33;;;;;;;5.93;1.88;;;;;;;6.83;100.00;95650.13;6158983;23;20048;-88
2023/04/12 02:01:01;;;;;;;7.40;2.23;;;;;;;6.83;100.00;95644.91;6158808;23;20314;-88
2023/04/12 02:03:31;;;;;;;6.53;2.10;;;;;;;6.75;100.00;95637.84;6161475;23;20040;-88
2023/04/12 02:06:20;;;;;;;6.93;2.30;;;;;;;6.84;100.00;95630.88;6160781;23;20088;-89
2023/04/12 02:08:46;;;;;;;6.37;1.77;;;;;;;6.75;100.00;95629.19;6161173;23;20100;-88
2023/04/12 02:11:13;;;;;;;7.47;2.17;;;;;;;6.77;100.00;95630.69;6160534;23;20107;-88
2023/04/12 02:13:39;;;;;;;6.57;1.93;;;;;;;6.78;100.00;95627.09;6161118;23;20103;-88
2023/04/12 02:16:07;;;;;;;6.30;1.93;;;;;;;6.84;100.00;95633.47;6185098;23;20063;-88
2023/04/12 02:18:34;;;;;;;7.90;2.03;;;;;;;6.82;100.00;95625.81;6185528;23;20092;-88
2023/04/12 02:21:00;;;;;;;11.00;2.43;;;;;;;6.84;100.00;95623.88;6160499;23;20093;-88
2023/04/12 02:23:27;;;;;;;7.47;2.07;;;;;;;6.84;100.00;95616.03;6161461;23;20019;-88
2023/04/12 02:26:02;;;;;;;9.10;2.13;;;;;;;6.69;100.00;95619.31;6185633;23;20345;-88
2023/04/12 02:28:28;;;;;;;5.40;1.73;;;;;;;6.71;100.00;95618.22;6160423;23;20016;-88
2023/04/12 02:30:54;;;;;;;6.30;2.30;;;;;;;6.69;100.00;95604.47;6185712;23;20009;-88
2023/04/12 02:33:24;;;;;;;7.30;1.73;;;;;;;6.63;100.00;95599.81;6160614;23;20012;-87
2023/04/12 02:35:51;;;;;;;5.90;1.50;;;;;;;6.68;100.00;95602.81;6161261;23;20013;-88
2023/04/12 02:38:19;;;;;;;8.70;2.60;;;;;;;6.66;100.00;95591.69;6161705;23;20009;-88
2023/04/12 02:40:47;;;;;;;6.67;1.80;;;;;;;6.71;100.00;95594.69;6156712;23;20024;-88
2023/04/12 02:43:15;;;;;;;6.37;1.93;;;;;;;6.66;100.00;95583.03;6160768;23;20084;-87
2023/04/12 02:45:46;;;;;;;9.57;1.70;;;;;;;6.57;100.00;95579.53;6165674;23;19989;-87
2023/04/12 02:48:11;;;;;;;4.83;1.90;;;;;;;6.59;100.00;95580.22;6163477;23;20607;-86
2023/04/12 02:50:38;;;;;;;7.03;1.60;;;;;;;6.55;100.00;95581.50;6184860;23;20027;-87
2023/04/12 02:53:12;;;;;;;6.30;1.80;;;;;;;6.56;100.00;95577.91;6184520;23;20013;-87
2023/04/12 02:55:41;;;;;;;6.33;1.90;;;;;;;6.51;100.00;95573.13;6184716;23;20075;-87
2023/04/12 02:58:08;;;;;;;6.30;2.10;;;;;;;6.44;100.00;95576.47;6187513;23;20445;-87
2023/04/12 03:00:42;;;;;;;5.23;1.50;;;;;;;6.50;100.00;95574.09;6161164;23;20024;-87
2023/04/12 03:03:09;;;;;;;5.87;2.60;;;;;;;6.42;100.00;95573.22;6134678;23;20024;-87
2023/04/12 03:05:36;;;;;;;6.07;2.10;;;;;;;6.36;100.00;95569.41;6181980;23;20013;-87
2023/04/12 03:08:02;;;;;;;6.53;2.03;;;;;;;6.37;100.00;95565.81;6181514;23;20021;-87
2023/04/12 03:10:46;;;;;;;7.30;2.60;;;;;;;6.37;100.00;95569.25;6181455;23;20036;-86
2023/04/12 03:13:12;;;;;;;7.27;2.27;;;;;;;6.38;100.00;95559.63;6157170;23;20089;-87
2023/04/12 03:15:44;;;;;;;8.53;2.07;;;;;;;6.36;100.00;95556.34;6156714;23;20058;-87
2023/04/12 03:18:11;;;;;;;6.03;2.47;;;;;;;6.30;100.00;95547.31;6156583;23;20471;-87
2023/04/12 03:20:43;;;;;;;8.43;3.17;;;;;;;6.35;100.00;95546.88;6182871;23;20074;-86
2023/04/12 03:23:11;;;;;;;9.60;3.50;;;;;;;6.25;100.00;95539.13;6156711;23;20017;-85
2023/04/12 03:25:43;;;;;;;7.47;3.00;;;;;;;6.17;100.00;95531.22;6158187;23;20013;-87
2023/04/12 03:28:28;;;;;;;6.07;2.63;;;;;;;6.15;100.00;95533.16;6160509;23;20009;-87
2023/04/12 03:30:54;;;;;;;9.00;2.60;;;;;;;6.18;100.00;95529.44;6156150;23;20013;-87
2023/04/12 03:33:23;;;;;;;7.60;3.53;;;;;;;6.16;100.00;95532.16;6157156;23;20001;-87
2023/04/12 03:35:51;;;;;;;10.53;2.93;;;;;;;6.30;100.00;95526.41;6182590;23;20705;-87
2023/04/12 03:38:17;;;;;;;6.17;2.13;;;;;;;6.29;100.00;95514.34;6157143;23;20021;-87
2023/04/12 03:40:43;;;;;;;7.63;2.33;;;;;;;6.19;100.00;95507.56;6181027;23;20071;-86
2023/04/12 03:43:09;;;;;;;7.27;2.97;;;;;;;6.25;100.00;95502.56;6173584;23;19996;-88
2023/04/12 03:45:35;;;;;;;6.73;2.30;;;;;;;6.10;100.00;95498.81;6159474;23;20012;-87
2023/04/12 03:48:02;;;;;;;5.10;2.20;;;;;;;6.09;100.00;95497.19;6181481;23;20013;-87
2023/04/12 03:50:40;;;;;;;7.70;2.30;;;;;;;6.17;100.00;95494.66;6158110;23;20021;-87
2023/04/12 03:53:07;;;;;;;4.67;1.90;;;;;;;6.08;100.00;95488.53;6158159;23;20039;-87
2023/04/12 03:55:33;;;;;;;6.40;2.07;;;;;;;6.13;100.00;95485.47;6157357;23;20433;-88
2023/04/12 03:58:01;;;;;;;5.60;1.80;;;;;;;6.12;100.00;95474.22;6157284;23;20013;-87
2023/04/12 04:00:32;;;;;;;7.40;2.03;;;;;;;6.08;100.00;95470.28;6158396;23;20573;-87
2023/04/12 04:03:08;;;;;;;5.57;1.90;;;;;;;6.06;100.00;95474.00;6157658;23;20056;-87
2023/04/12 04:05:44;;;;;;;4.57;2.33;;;;;;;6.04;100.00;95470.72;6159166;23;20449;-88
2023/04/12 04:08:10;;;;;;;9.17;2.93;;;;;;;6.10;100.00;95464.88;6157677;23;20013;-87
2023/04/12 04:10:47;;;;;;;11.40;4.27;;;;;;;6.18;100.00;95461.53;6156984;23;20016;-87
2023/04/12 04:13:13;;;;;;;18.50;8.30;;;;;;;6.03;100.00;95453.41;6153846;23;20013;-87
2023/04/12 04:15:39;;;;;;;16.33;7.00;;;;;;;6.02;100.00;95449.16;6154432;23;20839;-88
2023/04/12 04:18:05;;;;;;;14.20;5.40;;;;;;;6.05;100.00;95446.25;6203989;23;20017;-87
2023/04/12 04:20:31;;;;;;;12.17;5.23;;;;;;;6.07;100.00;95439.94;6180502;23;20397;-88
2023/04/12 04:22:57;;;;;;;8.93;4.33;;;;;;;6.00;100.00;95441.50;6182235;23;20091;-87
2023/04/12 04:25:30;;;;;;;11.40;4.80;;;;;;;6.01;100.00;95437.09;6182712;23;20021;-88
2023/04/12 04:28:01;;;;;;;9.97;4.50;;;;;;;5.99;100.00;95423.38;6184362;23;20013;-85
2023/04/12 04:30:28;;;;;;;10.30;4.93;;;;;;;6.05;100.00;95430.59;6181127;23;20013;-84
2023/04/12 04:32:57;;;;;;;9.47;4.13;;;;;;;6.08;100.00;95431.13;6167775;23;20009;-84
2023/04/12 04:35:24;;;;;;;10.23;3.97;;;;;;;6.05;100.00;95423.59;6155145;23;20017;-84
2023/04/12 04:38:19;;;;;;;8.43;4.25;;;;;;;6.12;100.00;95426.41;6160607;23;20013;-84
2023/04/12 04:40:54;;;;;;;9.80;4.80;;;;;;;6.12;100.00;95421.19;6178797;23;20016;-84
2023/04/12 04:43:25;;;;;;;11.33;4.47;;;;;;;6.13;100.00;95423.63;6204539;23;20445;-84
2023/04/12 04:45:57;;;;;;;9.23;4.95;;;;;;;6.11;100.00;95430.00;6181098;23;20012;-85
2023/04/12 04:48:23;;;;;;;7.83;4.53;;;;;;;6.13;100.00;95433.25;6205284;23;20093;-83
2023/04/12 04:50:52;;;;;;;10.07;4.93;;;;;;;6.25;100.00;95426.84;6155440;23;20017;-84
2023/04/12 04:53:21;;;;;;;8.83;4.90;;;;;;;6.24;100.00;95416.56;6155414;23;20381;-83
2023/04/12 04:55:47;;;;;;;9.97;4.90;;;;;;;6.22;100.00;95421.09;6179412;23;20008;-84
2023/04/12 04:58:15;;;;;;;10.27;4.97;;;;;;;6.23;100.00;95420.94;6155019;23;20024;-83
2023/04/12 05:00:47;;;;;;;11.27;5.03;;;;;;;6.35;100.00;95424.13;6155286;23;20028;-83
2023/04/12 05:03:13;;;;;;;8.33;5.00;;;;;;;6.30;100.00;95413.31;6157305;23;20028;-83
2023/04/12 05:05:39;;;;;;;8.67;4.17;;;;;;;6.34;100.00;95415.50;6154295;23;20001;-83
2023/04/12 05:08:08;;;;;;;8.80;5.77;;;;;;;6.31;100.00;95415.78;6155425;23;20016;-83
2023/04/12 05:10:35;;;;;;;9.90;4.93;;;;;;;6.23;100.00;95418.31;6154198;23;20020;-83
2023/04/12 05:13:01;;;;;;;9.17;4.63;;;;;;;6.29;100.00;95409.06;6178124;23;20048;-82
2023/04/12 05:15:30;;;;;;;6.50;3.70;;;;;;;6.28;100.00;95410.88;6154951;23;20027;-83
2023/04/12 05:17:56;;;;;;;8.87;4.47;;;;;;;6.19;100.00;95405.75;6178830;23;20021;-84
2023/04/12 05:20:38;;;;;;;11.17;4.90;;;;;;;6.24;100.00;95406.13;6154171;23;20012;-83
2023/04/12 05:23:04;;;;;;;7.00;4.10;;;;;;;6.22;100.00;95403.66;6179004;23;20075;-83
2023/04/12 05:25:30;;;;;;;6.93;4.17;;;;;;;6.25;100.00;95400.72;6204649;23;20012;-83
2023/04/12 05:28:04;;;;;;;7.87;3.90;;;;;;;6.34;100.00;95396.41;6156230;23;20020;-83
2023/04/12 05:30:31;;;;;;;6.97;4.17;;;;;;;6.36;100.00;95391.81;6155383;23;20353;-84
2023/04/12 05:32:57;;;;;;;11.33;8.50;;;;;;;6.34;100.00;95384.16;6153932;23;20036;-83
2023/04/12 05:35:23;;;;;;;6.63;4.73;;;;;;;6.23;100.00;95392.22;6179026;23;20009;-84
2023/04/12 05:37:55;;;;;;;6.30;4.03;;;;;;;6.28;100.00;95389.16;6180930;23;20027;-83
2023/04/12 05:40:24;;;;;;;12.60;6.93;;;;;;;6.36;100.00;95392.63;6179543;23;20346;-83
2023/04/12 05:42:52;;;;;;;18.40;9.40;;;;;;;6.37;100.00;95388.22;6153425;23;20124;-83
2023/04/12 05:45:18;;;;;;;12.67;7.43;;;;;;;6.30;100.00;95393.25;6204898;23;20159;-84
2023/04/12 05:47:48;;;;;;;10.33;5.57;;;;;;;6.42;100.00;95383.38;6154661;23;20013;-83
2023/04/12 05:50:14;;;;;;;7.50;4.33;;;;;;;6.37;100.00;95383.84;6179201;23;20079;-83
2023/04/12 05:52:40;;;;;;;8.03;5.13;;;;;;;6.49;100.00;95386.19;6178302;23;20604;-84
2023/04/12 05:55:17;;;;;;;7.23;4.43;;;;;;;6.50;100.00;95388.63;6179460;23;20067;-83
2023/04/12 05:57:44;;;;;;;6.63;4.13;;;;;;;6.42;100.00;95393.00;6154134;23;20009;-83
2023/04/12 06:00:17;;;;;;;7.93;5.03;;;;;;;6.51;100.00;95386.88;6204587;23;20393;-83
2023/04/12 06:02:45;;;;;;;6.80;4.33;;;;;;;6.61;100.00;95385.78;6178886;23;20349;-84
2023/04/12 06:05:11;;;;;;;7.50;4.73;;;;;;;6.57;100.00;95387.06;6179105;23;20073;-83
2023/04/12 06:07:46;;;;;;;11.20;8.07;;;;;;;6.58;100.00;95387.88;6154714;23;20778;-84
2023/04/12 06:10:15;;;;;;;13.57;7.13;;;;;;;6.55;100.00;95375.13;6179521;23;20031;-83
2023/04/12 06:12:41;;;;;;;9.00;5.77;;;;;;;6.64;100.00;95368.97;6180587;23;20071;-84
2023/04/12 06:15:11;;;;;;;7.37;4.70;;;;;;;6.60;100.00;95372.84;6157980;23;20039;-84
2023/04/12 06:17:37;;;;;;;8.60;4.97;;;;;;;6.61;100.00;95369.28;6184852;23;20009;-84
2023/04/12 06:20:08;;;;;;;7.17;4.40;;;;;;;6.71;100.00;95375.22;6194655;23;20079;-83
2023/04/12 06:22:54;;;;;;;9.20;5.40;;;;;;;6.78;100.00;95376.22;6155449;23;20021;-82
2023/04/12 06:25:21;;;;;;;6.70;4.53;;;;;;;6.78;100.00;95375.41;6181342;23;20092;-83
2023/04/12 06:27:47;;;;;;;8.97;4.87;;;;;;;6.77;100.00;95365.91;6180655;23;19997;-83
2023/04/12 06:30:15;;;;;;;7.93;4.10;;;;;;;6.80;100.00;95352.53;6156411;23;20554;-84
2023/04/12 06:32:41;;;;;;;6.10;4.10;;;;;;;6.77;100.00;95365.91;6155532;23;20016;-84
2023/04/12 06:35:07;;;;;;;6.33;3.70;;;;;;;6.75;100.00;95358.22;6181474;23;20353;-84
2023/04/12 06:37:33;;;;;;;7.50;4.90;;;;;;;6.85;100.00;95358.94;6180911;23;20471;-83
2023/04/12 06:39:58;;;;;;;10.23;4.53;;;;;;;6.87;100.00;95352.72;6182023;23;20326;-84
2023/04/12 06:42:24;;;;;;;8.50;4.97;;;;;;;6.88;100.00;95344.72;6179357;23;20020;-85
2023/04/12 06:44:50;;;;;;;7.30;3.60;;;;;;;6.88;100.00;95341.31;6182069;23;20020;-86
2023/04/12 06:47:15;;;;;;;6.87;3.00;;;;;;;6.95;100.00;95335.28;6157918;23;20005;-84
2023/04/12 06:49:42;;;;;;;7.07;3.37;;;;;;;6.90;100.00;95327.06;6181077;23;20013;-83
2023/04/12 06:52:08;;;;;;;6.23;3.00;;;;;;;7.02;100.00;95325.00;6179970;23;20076;-83
2023/04/12 06:54:37;;;;;;;4.93;3.00;;;;;;;6.95;100.00;95310.94;6180605;23;20020;-83
2023/04/12 06:57:07;;;;;;;6.40;3.00;;;;;;;6.95;100.00;95303.91;6155312;23;20017;-83
2023/04/12 06:59:36;;;;;;;5.27;3.00;;;;;;;6.96;100.00;95302.91;6154662;23;20364;-83
2023/04/12 07:02:02;;;;;;;4.53;2.60;;;;;;;7.02;100.00;95301.47;6154005;23;20413;-83
2023/04/12 07:04:27;;;;;;;6.83;2.30;;;;;;;7.05;100.00;95296.75;6177420;23;20017;-83
2023/04/12 07:06:55;;;;;;;3.60;2.03;;;;;;;7.07;100.00;95286.13;6210971;23;20011;-83
2023/04/12 07:09:21;;;;;;;4.10;1.43;;;;;;;7.08;100.00;95277.31;6179756;23;20039;-83
2023/04/12 07:11:47;;;;;;;3.13;1.83;;;;;;;7.17;100.00;95268.47;6178828;23;20017;-83
2023/04/12 07:14:13;;;;;;;4.70;2.40;;;;;;;7.08;100.00;95261.63;6154558;23;20005;-83
2023/04/12 07:16:38;;;;;;;2.87;1.43;;;;;;;7.11;100.00;95256.06;6179527;23;20015;-83
2023/04/12 07:19:04;;;;;;;3.47;2.10;;;;;;;7.00;100.00;95251.94;6180952;23;20318;-83
2023/04/12 07:21:33;;;;;;;3.33;1.83;;;;;;;7.03;100.00;95245.59;6183990;23;20013;-82
2023/04/12 07:24:00;;;;;;;3.23;1.77;;;;;;;7.14;100.00;95229.59;6180484;23;20020;-83
2023/04/12 07:26:26;;;;;;;2.70;1.67;;;;;;;7.07;100.00;95236.44;6180261;23;20059;-82
2023/04/12 07:28:51;;;;;;;3.27;1.60;;;;;;;6.98;100.00;95226.97;6179970;23;20596;-83
2023/04/12 07:31:17;;;;;;;4.07;1.80;;;;;;;7.09;100.00;95222.25;6179497;23;20013;-82
2023/04/12 07:33:43;;;;;;;5.37;1.60;;;;;;;7.06;100.00;95227.78;6154723;23;20017;-82
2023/04/12 07:36:09;;;;;;;3.67;1.30;;;;;;;7.06;100.00;95219.13;6179847;23;19997;-83
2023/04/12 07:38:39;;;;;;;2.73;1.57;;;;;;;7.10;100.00;95207.38;6180427;23;20017;-83
2023/04/12 07:41:05;;;;;;;2.07;1.10;;;;;;;7.03;100.00;95206.38;6155257;23;20023;-83
2023/04/12 07:43:31;;;;;;;2.13;1.00;;;;;;;7.14;100.00;95207.84;6179645;23;20017;-83
2023/04/12 07:45:56;;;;;;;2.23;1.27;;;;;;;7.11;100.00;95202.94;6155389;23;20013;-82
2023/04/12 07:48:22;;;;;;;1.97;1.17;;;;;;;7.16;100.00;95195.44;6180179;23;20016;-83
2023/04/12 07:50:47;;;;;;;2.40;1.47;;;;;;;7.19;100.00;95185.47;6155118;23;20084;-83
2023/04/12 07:53:27;;;;;;;3.83;1.57;;;;;;;7.47;100.00;95188.53;6154460;23;20404;-83
2023/04/12 07:55:53;;;;;;;4.20;2.13;;;;;;;7.35;100.00;95182.03;6156048;23;21045;-82
2023/04/12 07:58:21;;;;;;;7.90;2.60;;;;;;;7.46;100.00;95191.34;6155924;23;20013;-83
2023/04/12 08:00:47;;;;;;;10.03;3.93;;;;;;;7.47;100.00;95182.50;6157598;23;20039;-83
2023/04/12 08:03:15;;;;;;;12.10;4.60;;;;;;;7.56;100.00;95178.91;6181569;23;20353;-84
2023/04/12 08:05:41;;;;;;;5.17;2.13;;;;;;;7.61;100.00;95178.38;6168037;23;20023;-82
2023/04/12 08:08:10;;;;;;;4.33;1.60;;;;;;;7.63;100.00;95172.00;6149062;23;20071;-83
2023/04/12 08:10:37;;;;;;;3.70;1.90;;;;;;;7.62;100.00;95173.00;6179632;23;20009;-83
2023/04/12 08:13:04;;;;;;;6.57;2.17;;;;;;;7.56;100.00;95165.81;6178931;23;20013;-83
2023/04/12 08:15:30;;;;;;;3.57;1.40;;;;;;;7.56;100.00;95165.81;6179930;23;20024;-83
2023/04/12 08:17:55;;;;;;;4.33;1.50;;;;;;;7.56;100.00;95157.97;6179032;23;20017;-83
2023/04/12 08:20:21;;;;;;;2.20;1.30;;;;;;;7.60;100.00;95151.41;6180244;23;20013;-83
2023/04/12 08:22:48;;;;;;;5.80;1.23;;;;;;;7.73;100.00;95136.00;6154234;23;20017;-83
2023/04/12 08:25:13;;;;;;;3.70;1.23;;;;;;;7.74;100.00;95132.38;6154499;23;20013;-83
2023/04/12 08:27:44;;;;;;;2.47;1.20;;;;;;;7.69;100.00;95120.81;6154971;23;20013;-83
2023/04/12 08:30:10;;;;;;;3.63;1.30;;;;;;;7.77;100.00;95128.63;6155003;23;20024;-83
2023/04/12 08:32:40;;;;;;;2.80;1.50;;;;;;;7.78;100.00;95122.44;6179173;23;20445;-83
2023/04/12 08:35:06;;;;;;;2.57;1.50;;;;;;;7.78;100.00;95118.00;6180730;23;20013;-83
2023/04/12 08:37:33;;;;;;;3.67;1.50;;;;;;;8.00;100.00;95105.16;6179871;23;20096;-84
2023/04/12 08:40:03;;;;;;;4.57;1.90;;;;;;;8.15;100.00;95098.22;6181459;23;20020;-83
2023/04/12 08:42:30;;;;;;;3.90;1.27;;;;;;;8.09;100.00;95077.13;6154221;23;20640;-83
2023/04/12 08:44:56;;;;;;;2.80;1.77;;;;;;;8.26;100.00;95084.72;6180924;23;20035;-83
2023/04/12 08:47:22;;;;;;;3.13;1.30;;;;;;;8.34;100.00;95077.78;6205326;23;20047;-83
2023/04/12 08:49:52;;;;;;;3.07;1.20;;;;;;;8.42;100.00;95077.78;6156660;23;20013;-84
2023/04/12 08:52:18;;;;;;;2.80;1.23;;;;;;;8.50;100.00;95080.34;6204049;23;20104;-82
2023/04/12 08:54:43;;;;;;;4.30;1.40;;;;;;;8.49;100.00;95087.38;6179872;23;20017;-83
2023/04/12 08:57:11;;;;;;;4.30;1.40;;;;;;;8.66;100.00;95088.09;6155344;23;20013;-83
2023/04/12 08:59:39;;;;;;;3.13;1.50;;;;;;;8.53;100.00;95069.50;6180394;23;20009;-83
2023/04/12 09:02:07;;;;;;;3.90;1.70;;;;;;;8.68;100.00;95070.34;6179047;23;20009;-83
2023/04/12 09:04:53;;;;;;;6.13;2.23;;;;;;;8.68;100.00;95072.97;6154669;23;20082;-83
2023/04/12 09:07:22;;;;;;;3.73;1.57;;;;;;;8.62;100.00;95070.28;6154834;23;20013;-83
2023/04/12 09:09:49;;;;;;;4.87;1.50;;;;;;;8.50;100.00;95065.41;6178589;23;20055;-83
2023/04/12 09:12:17;;;;;;;3.37;1.43;;;;;;;8.68;100.00;95062.50;6154246;23;20024;-84
2023/04/12 09:14:43;;;;;;;4.87;1.80;;;;;;;8.68;100.00;95059.06;6179932;23;20012;-83
2023/04/12 09:17:23;;;;;;;5.30;1.77;;;;;;;8.76;100.00;95058.19;6155116;23;20017;-83
2023/04/12 09:19:49;;;;;;;2.87;1.70;;;;;;;8.63;100.00;95062.22;6179465;23;20049;-82
2023/04/12 09:22:18;;;;;;;3.63;1.10;;;;;;;8.74;100.00;95055.75;6177889;23;20020;-85
2023/04/12 09:24:52;;;;;;;3.30;1.50;;;;;;;8.72;100.00;95055.13;6154348;23;20021;-83
2023/04/12 09:27:27;;;;;;;5.60;3.00;;;;;;;8.82;100.00;95063.56;6205026;23;20043;-83
2023/04/12 09:30:06;;;;;;;2.40;1.20;;;;;;;8.89;100.00;95055.78;6153933;23;20021;-83
2023/04/12 09:32:32;;;;;;;2.03;1.00;;;;;;;8.91;100.00;95051.16;6203765;23;20016;-83
2023/04/12 09:35:01;;;;;;;2.90;1.37;;;;;;;8.89;100.00;95053.19;6154086;23;20049;-83
2023/04/12 09:37:27;;;;;;;3.70;1.47;;;;;;;8.99;100.00;95053.72;6179652;23;20001;-83
2023/04/12 09:40:04;;;;;;;3.60;1.60;;;;;;;8.81;100.00;95045.38;6179352;23;20712;-85
2023/04/12 09:42:34;;;;;;;2.53;1.00;;;;;;;8.91;100.00;95043.31;6179304;23;20037;-83
2023/04/12 09:45:17;;;;;;;3.70;1.63;;;;;;;8.78;100.00;95037.84;6155872;23;20017;-83
2023/04/12 09:47:42;;;;;;;3.58;1.50;;;;;;;8.80;100.00;95043.75;6183814;23;20013;-82
2023/04/12 09:50:18;;;;;;;3.30;1.50;;;;;;;8.87;100.00;95042.03;6210979;23;20031;-84
2023/04/12 09:52:44;;;;;;;4.13;1.77;;;;;;;8.77;100.00;95049.34;6193826;23;20013;-81
2023/04/12 09:55:17;;;;;;;4.20;2.00;;;;;;;8.79;100.00;95037.69;6156281;23;20020;-83
2023/04/12 09:57:44;;;;;;;6.47;3.03;;;;;;;8.84;100.00;95039.78;6181652;23;20522;-83
2023/04/12 10:00:16;;;;;;;5.33;2.43;;;;;;;8.93;100.00;95044.75;6156751;23;20329;-83
2023/04/12 10:02:46;;;;;;;4.47;2.00;;;;;;;8.87;100.00;95040.22;6180630;23;20013;-83
2023/04/12 10:05:15;;;;;;;4.37;1.67;;;;;;;8.79;100.00;95034.25;6180247;23;20404;-83
2023/04/12 10:07:41;;;;;;;6.70;2.30;;;;;;;9.03;100.00;95015.66;6155667;23;20036;-83
2023/04/12 10:10:12;;;;;;;5.63;2.67;;;;;;;8.97;100.00;95011.13;6180941;23;20063;-82
2023/04/12 10:12:48;;;;;;;3.17;1.80;;;;;;;9.12;100.00;95008.50;6155655;23;20021;-83
2023/04/12 10:15:20;;;;;;;4.57;2.37;;;;;;;9.33;100.00;95002.56;6155958;23;20063;-83
2023/04/12 10:17:51;;;;;;;4.40;1.80;;;;;;;9.34;100.00;94994.50;6180978;23;20005;-83
2023/04/12 10:20:33;;;;;;;2.87;1.60;;;;;;;9.34;100.00;94993.69;6180920;23;20023;-83
2023/04/12 10:23:05;;;;;;;4.23;1.90;;;;;;;9.53;100.00;94992.31;6157375;23;20017;-83
2023/04/12 10:25:31;;;;;;;4.57;2.10;;;;;;;9.59;100.00;94997.66;6205739;23;20067;-83
2023/04/12 10:28:17;;;;;;;4.60;2.47;;;;;;;9.57;100.00;94993.59;6180162;23;20016;-83
2023/04/12 10:30:44;;;;;;;3.90;2.43;;;;;;;9.63;100.00;94992.84;6155793;23;20095;-85
2023/04/12 10:33:12;;;;;;;6.10;2.60;;;;;;;9.61;100.00;94992.22;6181421;23;20017;-83
2023/04/12 10:35:47;;;;;;;6.20;2.80;;;;;;;9.56;100.00;94979.66;6180830;23;20047;-82
2023/04/12 10:38:13;;;;;;;5.80;2.70;;;;;;;9.65;100.00;94983.78;6156003;23;20132;-83
2023/04/12 10:41:17;;;;;;;5.27;2.47;;;;;;;9.46;100.00;94981.75;6204648;23;20017;-82
2023/04/12 10:43:46;;;;;;;;;;;;;;;9.96;100.00;94982.72;6156517;23;20020;-83
2023/04/12 10:46:37;;;;;;;4.97;2.90;;;;;;;9.60;100.00;94986.16;6155529;23;19915;-83
2023/04/12 10:49:19;;;;;;;7.20;4.17;;;;;;;9.41;100.00;94981.47;6155732;23;20023;-81
2023/04/12 10:52:08;;;;;;;6.33;3.50;;;;;;;9.58;100.00;94975.00;6154704;23;20852;-82
2023/04/12 10:54:34;;;;;;;6.50;3.60;;;;;;;9.68;100.00;94972.09;6180261;23;20009;-83
2023/04/12 10:57:01;;;;;;;5.93;3.47;;;;;;;9.62;100.00;94978.91;6180689;23;20044;-83
2023/04/12 10:59:53;;;;;;;7.13;3.23;;;;;;;9.71;100.00;94981.44;6157045;23;20036;-83
2023/04/12 11:02:18;;;;;;;9.63;4.63;;;;;;;9.53;100.00;94982.63;6155259;23;20123;-83
2023/04/12 11:05:18;;;;;;;9.00;3.63;;;;;;;9.64;100.00;94981.34;6180545;23;20063;-83
2023/04/12 11:07:59;;;;;;;8.10;3.70;;;;;;;9.77;100.00;94970.19;6158075;23;20044;-83
2023/04/12 11:10:51;;;;;;;7.33;3.70;;;;;;;9.76;100.00;94981.66;6180523;23;20071;-83
2023/04/12 11:13:28;;;;;;;7.25;3.50;;;;;;;9.87;100.00;94973.34;6180366;23;20009;-83
2023/04/12 11:15:55;;;;;;;6.47;3.60;;;;;;;9.92;100.00;94970.94;6155319;23;20040;-83
2023/04/12 11:18:22;;;;;;;8.63;4.03;;;;;;;10.01;100.00;94969.84;6204660;23;20019;-83
2023/04/12 11:20:49;;;;;;;7.60;4.03;;;;;;;9.98;100.00;94962.31;6155543;23;20425;-83
2023/04/12 11:23:16;;;;;;;7.93;4.07;;;;;;;9.99;100.00;94953.44;6179716;23;20017;-83
2023/04/12 11:25:48;;;;;;;9.10;4.93;;;;;;;10.13;100.00;94952.59;6179845;23;20021;-83
2023/04/12 11:28:17;;;;;;;8.13;4.40;;;;;;;10.03;100.00;94943.41;6180058;23;20476;-83
2023/04/12 11:30:52;;;;;;;6.50;4.00;;;;;;;10.22;100.00;94944.56;6181079;23;20099;-83
2023/04/12 11:33:34;;;;;;;10.07;4.70;;;;;;;10.28;100.00;94939.41;6181736;23;20411;-83
2023/04/12 11:36:04;;;;;;;7.30;4.20;;;;;;;10.52;100.00;94940.81;6181293;23;20064;-82
2023/04/12 11:38:30;;;;;;;9.17;4.13;;;;;;;10.58;100.00;94929.53;6197515;23;20071;-84
2023/04/12 11:40:59;;;;;;;8.03;4.40;;;;;;;10.83;100.00;94931.72;6154763;23;20017;-83
2023/04/12 11:43:37;;;;;;;8.40;4.77;;;;;;;10.94;100.00;94918.06;6155188;23;20104;-82
2023/04/12 11:46:03;;;;;;;9.37;5.50;;;;;;;11.05;100.00;94917.50;6155661;23;20019;-83